sensor_id;sensor_type;location;lat;lon;timestamp;temperature;humidity
52859;DHT22;38721;53.098;6.596;2024-01-30T00:01:52;5.70;99.90
52859;DHT22;38721;53.098;6.596;2024-01-30T00:04:18;5.90;99.90
52859;DHT22;38721;53.098;6.596;2024-01-30T00:06:44;5.80;99.90
52859;DHT22;38721;53.098;6.596;2024-01-30T00:09:09;5.80;99.90
52859;DHT22;38721;53.098;6.596;2024-01-30T00:11:36;5.80;99.90
52859;DHT22;38721;53.098;6.596;2024-01-30T00:14:03;5.80;99.90
52859;DHT22;38721;53.098;6.596;2024-01-30T00:16:28;5.80;99.90
52859;DHT22;38721;53.098;6.596;2024-01-30T00:18:54;5.90;99.90
52859;DHT22;38721;53.098;6.596;2024-01-30T00:21:20;5.80;99.90
52859;DHT22;38721;53.098;6.596;2024-01-30T00:23:47;5.80;99.90
52859;DHT22;38721;53.098;6.596;2024-01-30T00:26:13;5.90;99.90
52859;DHT22;38721;53.098;6.596;2024-01-30T00:28:40;5.90;99.90
52859;DHT22;38721;53.098;6.596;2024-01-30T00:31:06;5.80;99.90
52859;DHT22;38721;53.098;6.596;2024-01-30T00:33:32;5.90;99.90
52859;DHT22;38721;53.098;6.596;2024-01-30T00:35:58;5.80;99.90
52859;DHT22;38721;53.098;6.596;2024-01-30T00:38:24;5.70;99.90
52859;DHT22;38721;53.098;6.596;2024-01-30T00:40:49;5.70;99.90
52859;DHT22;38721;53.098;6.596;2024-01-30T00:43:15;5.70;99.90
52859;DHT22;38721;53.098;6.596;2024-01-30T00:45:43;5.50;99.90
52859;DHT22;38721;53.098;6.596;2024-01-30T00:48:09;5.60;99.90
52859;DHT22;38721;53.098;6.596;2024-01-30T00:50:34;5.50;99.90
52859;DHT22;38721;53.098;6.596;2024-01-30T00:53:00;5.60;99.90
52859;DHT22;38721;53.098;6.596;2024-01-30T00:55:26;5.50;99.90
52859;DHT22;38721;53.098;6.596;2024-01-30T00:57:52;5.60;99.90
52859;DHT22;38721;53.098;6.596;2024-01-30T01:00:17;5.50;99.90
52859;DHT22;38721;53.098;6.596;2024-01-30T01:02:44;5.50;99.90
52859;DHT22;38721;53.098;6.596;2024-01-30T01:05:10;5.50;99.90
52859;DHT22;38721;53.098;6.596;2024-01-30T01:07:36;5.50;99.90
52859;DHT22;38721;53.098;6.596;2024-01-30T01:10:02;5.50;99.90
52859;DHT22;38721;53.098;6.596;2024-01-30T01:12:28;5.60;99.90
52859;DHT22;38721;53.098;6.596;2024-01-30T01:14:53;5.50;99.90
52859;DHT22;38721;53.098;6.596;2024-01-30T01:17:19;5.60;99.90
52859;DHT22;38721;53.098;6.596;2024-01-30T01:19:45;5.60;99.90
52859;DHT22;38721;53.098;6.596;2024-01-30T01:22:11;5.60;99.90
52859;DHT22;38721;53.098;6.596;2024-01-30T01:24:37;5.80;99.90
52859;DHT22;38721;53.098;6.596;2024-01-30T01:27:03;5.70;99.90
52859;DHT22;38721;53.098;6.596;2024-01-30T01:29:29;5.70;99.90
52859;DHT22;38721;53.098;6.596;2024-01-30T01:31:55;5.70;99.90
52859;DHT22;38721;53.098;6.596;2024-01-30T01:34:21;5.60;99.90
52859;DHT22;38721;53.098;6.596;2024-01-30T01:36:47;5.70;99.90
52859;DHT22;38721;53.098;6.596;2024-01-30T01:39:13;5.70;99.90
52859;DHT22;38721;53.098;6.596;2024-01-30T01:41:39;5.70;99.90
52859;DHT22;38721;53.098;6.596;2024-01-30T01:44:04;5.80;99.90
52859;DHT22;38721;53.098;6.596;2024-01-30T01:46:32;5.80;99.90
52859;DHT22;38721;53.098;6.596;2024-01-30T01:48:58;5.70;99.90
52859;DHT22;38721;53.098;6.596;2024-01-30T01:51:27;5.70;99.90
52859;DHT22;38721;53.098;6.596;2024-01-30T01:54:02;5.60;99.90
52859;DHT22;38721;53.098;6.596;2024-01-30T01:56:29;5.70;99.90
52859;DHT22;38721;53.098;6.596;2024-01-30T01:58:55;5.60;99.90
52859;DHT22;38721;53.098;6.596;2024-01-30T02:01:25;5.70;99.90
52859;DHT22;38721;53.098;6.596;2024-01-30T02:03:52;5.80;99.90
52859;DHT22;38721;53.098;6.596;2024-01-30T02:06:18;5.70;99.90
52859;DHT22;38721;53.098;6.596;2024-01-30T02:08:44;5.70;99.90
52859;DHT22;38721;53.098;6.596;2024-01-30T02:11:10;5.70;99.90
52859;DHT22;38721;53.098;6.596;2024-01-30T02:13:37;5.70;99.90
52859;DHT22;38721;53.098;6.596;2024-01-30T02:16:03;5.80;99.90
52859;DHT22;38721;53.098;6.596;2024-01-30T02:18:28;5.70;99.90
52859;DHT22;38721;53.098;6.596;2024-01-30T02:20:56;5.70;99.90
52859;DHT22;38721;53.098;6.596;2024-01-30T02:23:24;5.70;99.90
52859;DHT22;38721;53.098;6.596;2024-01-30T02:25:51;5.70;99.90
52859;DHT22;38721;53.098;6.596;2024-01-30T02:28:19;5.70;99.90
52859;DHT22;38721;53.098;6.596;2024-01-30T02:30:45;5.70;99.90
52859;DHT22;38721;53.098;6.596;2024-01-30T02:33:12;5.80;99.90
52859;DHT22;38721;53.098;6.596;2024-01-30T02:35:37;5.70;99.90
52859;DHT22;38721;53.098;6.596;2024-01-30T02:38:03;5.70;99.90
52859;DHT22;38721;53.098;6.596;2024-01-30T02:40:29;5.90;99.90
52859;DHT22;38721;53.098;6.596;2024-01-30T02:42:56;5.90;99.90
52859;DHT22;38721;53.098;6.596;2024-01-30T02:45:22;5.80;99.90
52859;DHT22;38721;53.098;6.596;2024-01-30T02:47:47;5.90;99.90
52859;DHT22;38721;53.098;6.596;2024-01-30T02:50:13;5.90;99.90
52859;DHT22;38721;53.098;6.596;2024-01-30T02:52:40;5.90;99.90
52859;DHT22;38721;53.098;6.596;2024-01-30T02:55:06;6.00;99.90
52859;DHT22;38721;53.098;6.596;2024-01-30T02:57:32;5.90;99.90
52859;DHT22;38721;53.098;6.596;2024-01-30T02:59:58;5.80;99.90
52859;DHT22;38721;53.098;6.596;2024-01-30T03:02:23;5.80;99.90
52859;DHT22;38721;53.098;6.596;2024-01-30T03:04:49;5.90;99.90
52859;DHT22;38721;53.098;6.596;2024-01-30T03:07:15;5.80;99.90
52859;DHT22;38721;53.098;6.596;2024-01-30T03:09:44;5.90;99.90
52859;DHT22;38721;53.098;6.596;2024-01-30T03:12:10;5.90;99.90
52859;DHT22;38721;53.098;6.596;2024-01-30T03:14:36;5.90;99.90
52859;DHT22;38721;53.098;6.596;2024-01-30T03:17:02;5.90;99.90
52859;DHT22;38721;53.098;6.596;2024-01-30T03:19:28;6.00;99.90
52859;DHT22;38721;53.098;6.596;2024-01-30T03:21:54;6.00;99.90
52859;DHT22;38721;53.098;6.596;2024-01-30T03:24:19;6.00;99.90
52859;DHT22;38721;53.098;6.596;2024-01-30T03:26:46;6.00;99.90
52859;DHT22;38721;53.098;6.596;2024-01-30T03:29:12;6.00;99.90
52859;DHT22;38721;53.098;6.596;2024-01-30T03:31:39;6.10;99.90
52859;DHT22;38721;53.098;6.596;2024-01-30T03:34:04;6.10;99.90
52859;DHT22;38721;53.098;6.596;2024-01-30T03:36:30;6.10;99.90
52859;DHT22;38721;53.098;6.596;2024-01-30T03:38:58;6.10;99.90
52859;DHT22;38721;53.098;6.596;2024-01-30T03:41:24;6.20;99.90
52859;DHT22;38721;53.098;6.596;2024-01-30T03:43:50;6.10;99.90
52859;DHT22;38721;53.098;6.596;2024-01-30T03:46:16;6.20;99.90
52859;DHT22;38721;53.098;6.596;2024-01-30T03:48:42;6.10;99.90
52859;DHT22;38721;53.098;6.596;2024-01-30T03:51:08;6.20;99.90
52859;DHT22;38721;53.098;6.596;2024-01-30T03:53:34;6.20;99.90
52859;DHT22;38721;53.098;6.596;2024-01-30T03:56:00;6.20;99.90
52859;DHT22;38721;53.098;6.596;2024-01-30T03:58:26;6.30;99.90
52859;DHT22;38721;53.098;6.596;2024-01-30T04:00:52;6.30;99.90
52859;DHT22;38721;53.098;6.596;2024-01-30T04:03:18;6.30;99.90
52859;DHT22;38721;53.098;6.596;2024-01-30T04:05:44;6.30;99.90
52859;DHT22;38721;53.098;6.596;2024-01-30T04:08:10;6.40;99.90
52859;DHT22;38721;53.098;6.596;2024-01-30T04:10:36;6.50;99.90
52859;DHT22;38721;53.098;6.596;2024-01-30T04:13:01;6.60;99.90
52859;DHT22;38721;53.098;6.596;2024-01-30T04:15:27;6.50;99.90
52859;DHT22;38721;53.098;6.596;2024-01-30T04:17:57;6.60;99.90
52859;DHT22;38721;53.098;6.596;2024-01-30T04:20:24;6.70;99.90
52859;DHT22;38721;53.098;6.596;2024-01-30T04:22:50;6.80;99.90
52859;DHT22;38721;53.098;6.596;2024-01-30T04:25:15;6.70;99.90
52859;DHT22;38721;53.098;6.596;2024-01-30T04:27:41;6.70;99.90
52859;DHT22;38721;53.098;6.596;2024-01-30T04:30:07;6.80;99.90
52859;DHT22;38721;53.098;6.596;2024-01-30T04:32:33;6.90;99.90
52859;DHT22;38721;53.098;6.596;2024-01-30T04:35:00;6.80;99.90
52859;DHT22;38721;53.098;6.596;2024-01-30T04:37:25;6.80;99.90
52859;DHT22;38721;53.098;6.596;2024-01-30T04:39:51;6.90;99.90
52859;DHT22;38721;53.098;6.596;2024-01-30T04:42:17;6.90;99.90
52859;DHT22;38721;53.098;6.596;2024-01-30T04:44:43;6.90;99.90
52859;DHT22;38721;53.098;6.596;2024-01-30T04:47:09;7.10;99.90
52859;DHT22;38721;53.098;6.596;2024-01-30T04:49:38;7.10;99.90
52859;DHT22;38721;53.098;6.596;2024-01-30T04:52:05;7.00;99.90
52859;DHT22;38721;53.098;6.596;2024-01-30T04:54:31;7.00;99.90
52859;DHT22;38721;53.098;6.596;2024-01-30T04:56:57;7.10;99.90
52859;DHT22;38721;53.098;6.596;2024-01-30T04:59:23;7.10;99.90
52859;DHT22;38721;53.098;6.596;2024-01-30T05:01:49;7.10;99.90
52859;DHT22;38721;53.098;6.596;2024-01-30T05:04:15;7.10;99.90
52859;DHT22;38721;53.098;6.596;2024-01-30T05:06:41;7.00;99.90
52859;DHT22;38721;53.098;6.596;2024-01-30T05:09:07;7.10;99.90
52859;DHT22;38721;53.098;6.596;2024-01-30T05:11:37;7.10;99.90
52859;DHT22;38721;53.098;6.596;2024-01-30T05:14:04;7.10;99.90
52859;DHT22;38721;53.098;6.596;2024-01-30T05:16:30;7.10;99.90
52859;DHT22;38721;53.098;6.596;2024-01-30T05:18:55;7.10;99.90
52859;DHT22;38721;53.098;6.596;2024-01-30T05:21:21;7.20;99.90
52859;DHT22;38721;53.098;6.596;2024-01-30T05:23:47;7.10;99.90
52859;DHT22;38721;53.098;6.596;2024-01-30T05:26:12;7.10;99.90
52859;DHT22;38721;53.098;6.596;2024-01-30T05:28:38;7.10;99.90
52859;DHT22;38721;53.098;6.596;2024-01-30T05:31:04;7.20;99.90
52859;DHT22;38721;53.098;6.596;2024-01-30T05:33:29;7.10;99.90
52859;DHT22;38721;53.098;6.596;2024-01-30T05:35:55;7.10;99.90
52859;DHT22;38721;53.098;6.596;2024-01-30T05:38:21;7.10;99.90
52859;DHT22;38721;53.098;6.596;2024-01-30T05:40:46;7.10;99.90
52859;DHT22;38721;53.098;6.596;2024-01-30T05:43:12;7.20;99.90
52859;DHT22;38721;53.098;6.596;2024-01-30T05:45:38;7.10;99.90
52859;DHT22;38721;53.098;6.596;2024-01-30T05:48:04;7.10;99.90
52859;DHT22;38721;53.098;6.596;2024-01-30T05:50:30;7.00;99.90
52859;DHT22;38721;53.098;6.596;2024-01-30T05:52:56;7.10;99.90
52859;DHT22;38721;53.098;6.596;2024-01-30T05:55:21;7.10;99.90
52859;DHT22;38721;53.098;6.596;2024-01-30T05:57:47;7.10;99.90
52859;DHT22;38721;53.098;6.596;2024-01-30T06:00:13;7.20;99.90
52859;DHT22;38721;53.098;6.596;2024-01-30T06:02:39;7.20;99.90
52859;DHT22;38721;53.098;6.596;2024-01-30T06:05:05;7.20;99.90
52859;DHT22;38721;53.098;6.596;2024-01-30T06:07:31;7.30;99.90
52859;DHT22;38721;53.098;6.596;2024-01-30T06:09:57;7.30;99.90
52859;DHT22;38721;53.098;6.596;2024-01-30T06:12:22;7.20;99.90
52859;DHT22;38721;53.098;6.596;2024-01-30T06:14:48;7.30;99.90
52859;DHT22;38721;53.098;6.596;2024-01-30T06:17:14;7.30;99.90
52859;DHT22;38721;53.098;6.596;2024-01-30T06:19:40;7.20;99.90
52859;DHT22;38721;53.098;6.596;2024-01-30T06:22:06;7.30;99.90
52859;DHT22;38721;53.098;6.596;2024-01-30T06:24:32;7.30;99.90
52859;DHT22;38721;53.098;6.596;2024-01-30T06:26:59;7.30;99.90
52859;DHT22;38721;53.098;6.596;2024-01-30T06:29:26;7.30;99.90
52859;DHT22;38721;53.098;6.596;2024-01-30T06:31:52;7.30;99.90
52859;DHT22;38721;53.098;6.596;2024-01-30T06:34:18;7.30;99.90
52859;DHT22;38721;53.098;6.596;2024-01-30T06:36:44;7.40;99.90
52859;DHT22;38721;53.098;6.596;2024-01-30T06:39:09;7.40;99.90
52859;DHT22;38721;53.098;6.596;2024-01-30T06:41:35;7.40;99.90
52859;DHT22;38721;53.098;6.596;2024-01-30T06:44:02;7.40;99.90
52859;DHT22;38721;53.098;6.596;2024-01-30T06:46:29;7.50;99.90
52859;DHT22;38721;53.098;6.596;2024-01-30T06:48:55;7.50;99.90
52859;DHT22;38721;53.098;6.596;2024-01-30T06:51:21;7.50;99.90
52859;DHT22;38721;53.098;6.596;2024-01-30T06:53:46;7.60;99.90
52859;DHT22;38721;53.098;6.596;2024-01-30T06:56:12;7.50;99.90
52859;DHT22;38721;53.098;6.596;2024-01-30T06:58:41;7.50;99.90
52859;DHT22;38721;53.098;6.596;2024-01-30T07:01:06;7.60;99.90
52859;DHT22;38721;53.098;6.596;2024-01-30T07:03:32;7.70;99.90
52859;DHT22;38721;53.098;6.596;2024-01-30T07:06:00;7.60;99.90
52859;DHT22;38721;53.098;6.596;2024-01-30T07:08:25;7.60;99.90
52859;DHT22;38721;53.098;6.596;2024-01-30T07:10:52;7.60;99.90
52859;DHT22;38721;53.098;6.596;2024-01-30T07:13:20;7.60;99.90
52859;DHT22;38721;53.098;6.596;2024-01-30T07:15:46;7.60;99.90
52859;DHT22;38721;53.098;6.596;2024-01-30T07:18:11;7.60;99.90
52859;DHT22;38721;53.098;6.596;2024-01-30T07:20:39;7.70;99.90
52859;DHT22;38721;53.098;6.596;2024-01-30T07:23:12;7.70;99.90
52859;DHT22;38721;53.098;6.596;2024-01-30T07:25:40;7.80;99.90
52859;DHT22;38721;53.098;6.596;2024-01-30T07:28:10;7.80;99.90
52859;DHT22;38721;53.098;6.596;2024-01-30T07:30:36;7.80;99.90
52859;DHT22;38721;53.098;6.596;2024-01-30T07:33:02;7.80;99.90
52859;DHT22;38721;53.098;6.596;2024-01-30T07:35:28;7.80;99.90
52859;DHT22;38721;53.098;6.596;2024-01-30T07:37:53;7.70;99.90
52859;DHT22;38721;53.098;6.596;2024-01-30T07:40:19;7.80;99.90
52859;DHT22;38721;53.098;6.596;2024-01-30T07:42:45;7.80;99.90
52859;DHT22;38721;53.098;6.596;2024-01-30T07:45:11;7.80;99.90
52859;DHT22;38721;53.098;6.596;2024-01-30T07:47:37;7.70;99.90
52859;DHT22;38721;53.098;6.596;2024-01-30T07:50:03;7.80;99.90
52859;DHT22;38721;53.098;6.596;2024-01-30T07:52:29;7.80;99.90
52859;DHT22;38721;53.098;6.596;2024-01-30T07:54:54;7.90;99.90
52859;DHT22;38721;53.098;6.596;2024-01-30T07:57:20;7.90;99.90
52859;DHT22;38721;53.098;6.596;2024-01-30T07:59:46;7.80;99.90
52859;DHT22;38721;53.098;6.596;2024-01-30T08:02:12;7.90;99.90
52859;DHT22;38721;53.098;6.596;2024-01-30T08:04:39;7.90;99.90
52859;DHT22;38721;53.098;6.596;2024-01-30T08:07:04;7.90;99.90
52859;DHT22;38721;53.098;6.596;2024-01-30T08:09:30;8.00;99.90
52859;DHT22;38721;53.098;6.596;2024-01-30T08:11:56;8.00;99.90
52859;DHT22;38721;53.098;6.596;2024-01-30T08:14:22;8.00;99.90
52859;DHT22;38721;53.098;6.596;2024-01-30T08:16:47;8.00;99.90
52859;DHT22;38721;53.098;6.596;2024-01-30T08:19:15;8.10;99.90
52859;DHT22;38721;53.098;6.596;2024-01-30T08:21:43;8.10;99.90
52859;DHT22;38721;53.098;6.596;2024-01-30T08:24:08;8.00;99.90
52859;DHT22;38721;53.098;6.596;2024-01-30T08:26:34;8.10;99.90
52859;DHT22;38721;53.098;6.596;2024-01-30T08:29:01;8.20;99.90
52859;DHT22;38721;53.098;6.596;2024-01-30T08:31:27;8.20;99.90
52859;DHT22;38721;53.098;6.596;2024-01-30T08:33:53;8.20;99.90
52859;DHT22;38721;53.098;6.596;2024-01-30T08:36:19;8.30;99.90
52859;DHT22;38721;53.098;6.596;2024-01-30T08:38:45;8.30;99.90
52859;DHT22;38721;53.098;6.596;2024-01-30T08:41:11;8.30;99.90
52859;DHT22;38721;53.098;6.596;2024-01-30T08:43:37;8.40;99.90
52859;DHT22;38721;53.098;6.596;2024-01-30T08:46:02;8.40;99.90
52859;DHT22;38721;53.098;6.596;2024-01-30T08:48:29;8.60;99.90
52859;DHT22;38721;53.098;6.596;2024-01-30T08:50:54;8.60;99.90
52859;DHT22;38721;53.098;6.596;2024-01-30T08:53:20;8.60;99.90
52859;DHT22;38721;53.098;6.596;2024-01-30T08:55:46;8.60;99.90
52859;DHT22;38721;53.098;6.596;2024-01-30T08:58:11;8.70;99.90
52859;DHT22;38721;53.098;6.596;2024-01-30T09:00:38;8.70;99.90
52859;DHT22;38721;53.098;6.596;2024-01-30T09:03:04;8.70;99.90
52859;DHT22;38721;53.098;6.596;2024-01-30T09:05:29;8.70;99.90
52859;DHT22;38721;53.098;6.596;2024-01-30T09:07:55;8.80;99.90
52859;DHT22;38721;53.098;6.596;2024-01-30T09:10:21;8.90;99.90
52859;DHT22;38721;53.098;6.596;2024-01-30T09:12:47;8.90;99.90
52859;DHT22;38721;53.098;6.596;2024-01-30T09:15:13;8.90;99.90
52859;DHT22;38721;53.098;6.596;2024-01-30T09:17:39;9.00;99.90
52859;DHT22;38721;53.098;6.596;2024-01-30T09:20:05;9.00;99.90
52859;DHT22;38721;53.098;6.596;2024-01-30T09:22:34;9.00;99.90
52859;DHT22;38721;53.098;6.596;2024-01-30T09:24:59;9.00;99.90
52859;DHT22;38721;53.098;6.596;2024-01-30T09:27:25;9.00;99.90
52859;DHT22;38721;53.098;6.596;2024-01-30T09:29:51;9.10;99.90
52859;DHT22;38721;53.098;6.596;2024-01-30T09:32:17;9.20;99.90
52859;DHT22;38721;53.098;6.596;2024-01-30T09:34:44;9.30;99.90
52859;DHT22;38721;53.098;6.596;2024-01-30T09:37:09;9.30;99.90
52859;DHT22;38721;53.098;6.596;2024-01-30T09:39:35;9.40;99.90
52859;DHT22;38721;53.098;6.596;2024-01-30T09:42:06;9.50;99.90
52859;DHT22;38721;53.098;6.596;2024-01-30T09:44:38;9.60;99.90
52859;DHT22;38721;53.098;6.596;2024-01-30T09:47:04;9.60;99.90
52859;DHT22;38721;53.098;6.596;2024-01-30T09:49:32;9.70;99.90
52859;DHT22;38721;53.098;6.596;2024-01-30T09:51:58;9.80;99.90
52859;DHT22;38721;53.098;6.596;2024-01-30T09:54:24;9.90;99.90
52859;DHT22;38721;53.098;6.596;2024-01-30T09:56:50;10.00;99.90
52859;DHT22;38721;53.098;6.596;2024-01-30T09:59:18;10.10;99.90
52859;DHT22;38721;53.098;6.596;2024-01-30T10:01:45;10.10;99.90
52859;DHT22;38721;53.098;6.596;2024-01-30T10:04:11;10.10;99.90
52859;DHT22;38721;53.098;6.596;2024-01-30T10:06:37;10.10;99.90
52859;DHT22;38721;53.098;6.596;2024-01-30T10:09:03;10.10;99.90
52859;DHT22;38721;53.098;6.596;2024-01-30T10:11:30;10.20;99.90
52859;DHT22;38721;53.098;6.596;2024-01-30T10:13:56;10.10;99.90
52859;DHT22;38721;53.098;6.596;2024-01-30T10:16:22;10.10;99.90
52859;DHT22;38721;53.098;6.596;2024-01-30T10:18:50;10.20;99.90
52859;DHT22;38721;53.098;6.596;2024-01-30T10:21:16;10.20;99.90
52859;DHT22;38721;53.098;6.596;2024-01-30T10:23:43;10.30;99.90
52859;DHT22;38721;53.098;6.596;2024-01-30T10:26:10;10.30;99.90
52859;DHT22;38721;53.098;6.596;2024-01-30T10:28:36;10.30;99.90
52859;DHT22;38721;53.098;6.596;2024-01-30T10:31:02;10.40;99.90
52859;DHT22;38721;53.098;6.596;2024-01-30T10:33:31;10.40;99.90
52859;DHT22;38721;53.098;6.596;2024-01-30T10:36:01;10.40;99.90
52859;DHT22;38721;53.098;6.596;2024-01-30T10:38:31;10.40;99.90
52859;DHT22;38721;53.098;6.596;2024-01-30T10:40:59;10.30;99.90
52859;DHT22;38721;53.098;6.596;2024-01-30T10:43:32;10.40;99.90
52859;DHT22;38721;53.098;6.596;2024-01-30T10:46:14;10.40;99.90
52859;DHT22;38721;53.098;6.596;2024-01-30T10:48:58;10.40;99.90
52859;DHT22;38721;53.098;6.596;2024-01-30T10:51:28;10.40;99.90
52859;DHT22;38721;53.098;6.596;2024-01-30T10:53:56;10.40;99.90
52859;DHT22;38721;53.098;6.596;2024-01-30T10:56:22;10.50;99.90
52859;DHT22;38721;53.098;6.596;2024-01-30T10:58:50;10.50;99.90
52859;DHT22;38721;53.098;6.596;2024-01-30T11:01:19;10.50;99.90
52859;DHT22;38721;53.098;6.596;2024-01-30T11:03:46;10.50;99.90
52859;DHT22;38721;53.098;6.596;2024-01-30T11:06:11;10.50;99.90
52859;DHT22;38721;53.098;6.596;2024-01-30T11:08:40;10.60;99.90
52859;DHT22;38721;53.098;6.596;2024-01-30T11:11:09;10.60;99.90
52859;DHT22;38721;53.098;6.596;2024-01-30T11:13:35;10.60;99.90
52859;DHT22;38721;53.098;6.596;2024-01-30T11:16:04;10.60;99.90
52859;DHT22;38721;53.098;6.596;2024-01-30T11:18:31;10.70;99.90
52859;DHT22;38721;53.098;6.596;2024-01-30T11:20:58;10.70;99.90
52859;DHT22;38721;53.098;6.596;2024-01-30T11:23:26;10.70;99.90
52859;DHT22;38721;53.098;6.596;2024-01-30T11:25:56;10.70;99.90
52859;DHT22;38721;53.098;6.596;2024-01-30T11:28:23;10.60;99.90
52859;DHT22;38721;53.098;6.596;2024-01-30T11:30:49;10.60;99.90
52859;DHT22;38721;53.098;6.596;2024-01-30T11:33:28;10.60;99.90
52859;DHT22;38721;53.098;6.596;2024-01-30T11:35:58;10.60;99.90
52859;DHT22;38721;53.098;6.596;2024-01-30T11:38:26;10.60;99.90
52859;DHT22;38721;53.098;6.596;2024-01-30T11:40:54;10.60;99.90
52859;DHT22;38721;53.098;6.596;2024-01-30T11:43:21;10.60;99.90
52859;DHT22;38721;53.098;6.596;2024-01-30T11:45:47;10.60;99.90
52859;DHT22;38721;53.098;6.596;2024-01-30T11:48:13;10.40;99.90
52859;DHT22;38721;53.098;6.596;2024-01-30T11:50:39;10.30;99.90
52859;DHT22;38721;53.098;6.596;2024-01-30T11:53:08;10.30;99.90
52859;DHT22;38721;53.098;6.596;2024-01-30T11:55:34;10.20;99.90
52859;DHT22;38721;53.098;6.596;2024-01-30T11:58:02;10.20;99.90
52859;DHT22;38721;53.098;6.596;2024-01-30T12:00:30;10.10;99.90
52859;DHT22;38721;53.098;6.596;2024-01-30T12:02:59;10.00;99.90
52859;DHT22;38721;53.098;6.596;2024-01-30T12:05:26;10.00;99.90
52859;DHT22;38721;53.098;6.596;2024-01-30T12:07:52;9.90;99.90
52859;DHT22;38721;53.098;6.596;2024-01-30T12:10:18;10.00;99.90
52859;DHT22;38721;53.098;6.596;2024-01-30T12:12:46;9.90;99.90
52859;DHT22;38721;53.098;6.596;2024-01-30T12:15:13;9.80;99.90
52859;DHT22;38721;53.098;6.596;2024-01-30T12:17:39;9.80;99.90
52859;DHT22;38721;53.098;6.596;2024-01-30T12:20:10;9.80;99.90
52859;DHT22;38721;53.098;6.596;2024-01-30T12:22:37;9.80;99.90
52859;DHT22;38721;53.098;6.596;2024-01-30T12:25:10;9.80;99.90
52859;DHT22;38721;53.098;6.596;2024-01-30T12:27:36;10.00;99.90
52859;DHT22;38721;53.098;6.596;2024-01-30T12:30:09;10.10;99.90
52859;DHT22;38721;53.098;6.596;2024-01-30T12:32:36;10.10;99.90
52859;DHT22;38721;53.098;6.596;2024-01-30T12:35:02;10.10;99.90
52859;DHT22;38721;53.098;6.596;2024-01-30T12:37:30;10.10;99.90
52859;DHT22;38721;53.098;6.596;2024-01-30T12:39:56;10.10;99.90
52859;DHT22;38721;53.098;6.596;2024-01-30T12:42:22;10.10;99.90
52859;DHT22;38721;53.098;6.596;2024-01-30T12:44:48;10.10;99.90
52859;DHT22;38721;53.098;6.596;2024-01-30T12:47:15;10.00;99.90
52859;DHT22;38721;53.098;6.596;2024-01-30T12:49:44;10.10;99.90
52859;DHT22;38721;53.098;6.596;2024-01-30T12:52:11;10.00;99.90
52859;DHT22;38721;53.098;6.596;2024-01-30T12:54:37;10.00;99.90
52859;DHT22;38721;53.098;6.596;2024-01-30T12:57:04;10.00;99.90
52859;DHT22;38721;53.098;6.596;2024-01-30T12:59:30;10.00;99.90
52859;DHT22;38721;53.098;6.596;2024-01-30T13:01:56;10.00;99.90
52859;DHT22;38721;53.098;6.596;2024-01-30T13:04:22;9.90;99.90
52859;DHT22;38721;53.098;6.596;2024-01-30T13:06:48;10.00;99.90
52859;DHT22;38721;53.098;6.596;2024-01-30T13:09:15;10.00;99.90
52859;DHT22;38721;53.098;6.596;2024-01-30T13:11:41;10.00;99.90
52859;DHT22;38721;53.098;6.596;2024-01-30T13:14:09;10.10;99.90
52859;DHT22;38721;53.098;6.596;2024-01-30T13:16:35;10.10;99.90
52859;DHT22;38721;53.098;6.596;2024-01-30T13:19:01;10.10;99.90
52859;DHT22;38721;53.098;6.596;2024-01-30T13:21:27;10.10;99.90
52859;DHT22;38721;53.098;6.596;2024-01-30T13:23:53;10.10;99.90
52859;DHT22;38721;53.098;6.596;2024-01-30T13:26:23;10.10;99.90
52859;DHT22;38721;53.098;6.596;2024-01-30T13:28:49;10.10;99.90
52859;DHT22;38721;53.098;6.596;2024-01-30T13:31:15;10.10;99.90
52859;DHT22;38721;53.098;6.596;2024-01-30T13:33:41;10.00;99.90
52859;DHT22;38721;53.098;6.596;2024-01-30T13:36:08;10.00;99.90
52859;DHT22;38721;53.098;6.596;2024-01-30T13:38:34;10.00;99.90
52859;DHT22;38721;53.098;6.596;2024-01-30T13:41:00;9.90;99.90
52859;DHT22;38721;53.098;6.596;2024-01-30T13:43:26;9.90;99.90
52859;DHT22;38721;53.098;6.596;2024-01-30T13:45:52;9.80;99.90
52859;DHT22;38721;53.098;6.596;2024-01-30T13:48:18;9.80;99.90
52859;DHT22;38721;53.098;6.596;2024-01-30T13:50:47;9.80;99.90
52859;DHT22;38721;53.098;6.596;2024-01-30T13:53:13;9.70;99.90
52859;DHT22;38721;53.098;6.596;2024-01-30T13:55:39;9.80;99.90
52859;DHT22;38721;53.098;6.596;2024-01-30T13:58:07;9.70;99.90
52859;DHT22;38721;53.098;6.596;2024-01-30T14:00:33;9.70;99.90
52859;DHT22;38721;53.098;6.596;2024-01-30T14:02:59;9.70;99.90
52859;DHT22;38721;53.098;6.596;2024-01-30T14:05:25;9.70;99.90
52859;DHT22;38721;53.098;6.596;2024-01-30T14:07:53;9.60;99.90
52859;DHT22;38721;53.098;6.596;2024-01-30T14:10:18;9.70;99.90
52859;DHT22;38721;53.098;6.596;2024-01-30T14:12:44;9.70;99.90
52859;DHT22;38721;53.098;6.596;2024-01-30T14:15:10;9.60;99.90
52859;DHT22;38721;53.098;6.596;2024-01-30T14:17:36;9.60;99.90
52859;DHT22;38721;53.098;6.596;2024-01-30T14:20:03;9.50;99.90
52859;DHT22;38721;53.098;6.596;2024-01-30T14:22:33;9.50;99.90
52859;DHT22;38721;53.098;6.596;2024-01-30T14:25:03;9.50;99.90
52859;DHT22;38721;53.098;6.596;2024-01-30T14:27:30;9.50;99.90
52859;DHT22;38721;53.098;6.596;2024-01-30T14:29:56;9.40;99.90
52859;DHT22;38721;53.098;6.596;2024-01-30T14:32:22;9.40;99.90
52859;DHT22;38721;53.098;6.596;2024-01-30T14:34:49;9.40;99.90
52859;DHT22;38721;53.098;6.596;2024-01-30T14:37:15;9.30;99.90
52859;DHT22;38721;53.098;6.596;2024-01-30T14:39:40;9.20;99.90
52859;DHT22;38721;53.098;6.596;2024-01-30T14:42:07;9.20;99.90
52859;DHT22;38721;53.098;6.596;2024-01-30T14:44:33;9.20;99.90
52859;DHT22;38721;53.098;6.596;2024-01-30T14:47:00;9.10;99.90
52859;DHT22;38721;53.098;6.596;2024-01-30T14:49:26;9.10;99.90
52859;DHT22;38721;53.098;6.596;2024-01-30T14:51:51;9.00;99.90
52859;DHT22;38721;53.098;6.596;2024-01-30T14:54:17;9.00;99.90
52859;DHT22;38721;53.098;6.596;2024-01-30T14:56:44;8.90;99.90
52859;DHT22;38721;53.098;6.596;2024-01-30T14:59:10;9.00;99.90
52859;DHT22;38721;53.098;6.596;2024-01-30T15:01:35;9.00;99.90
52859;DHT22;38721;53.098;6.596;2024-01-30T15:04:01;8.90;99.90
52859;DHT22;38721;53.098;6.596;2024-01-30T15:06:28;8.80;99.90
52859;DHT22;38721;53.098;6.596;2024-01-30T15:08:54;8.80;99.90
52859;DHT22;38721;53.098;6.596;2024-01-30T15:11:20;8.80;99.90
52859;DHT22;38721;53.098;6.596;2024-01-30T15:13:46;8.80;99.90
52859;DHT22;38721;53.098;6.596;2024-01-30T15:16:12;8.80;99.90
52859;DHT22;38721;53.098;6.596;2024-01-30T15:18:38;8.80;99.90
52859;DHT22;38721;53.098;6.596;2024-01-30T15:21:03;8.80;99.90
52859;DHT22;38721;53.098;6.596;2024-01-30T15:23:29;8.80;99.90
52859;DHT22;38721;53.098;6.596;2024-01-30T15:25:55;8.70;99.90
52859;DHT22;38721;53.098;6.596;2024-01-30T15:28:35;8.80;99.90
52859;DHT22;38721;53.098;6.596;2024-01-30T15:31:04;8.80;99.90
52859;DHT22;38721;53.098;6.596;2024-01-30T15:33:31;8.70;99.90
52859;DHT22;38721;53.098;6.596;2024-01-30T15:35:58;8.80;99.90
52859;DHT22;38721;53.098;6.596;2024-01-30T15:38:24;8.80;99.90